sensor_id;sensor_type;location;lat;lon;timestamp;temperature;humidity
25983;DHT22;13773;48.868;10.730;2023-04-25T00:01:04;6.30;99.90
25983;DHT22;13773;48.868;10.730;2023-04-25T00:03:31;6.20;99.90
25983;DHT22;13773;48.868;10.730;2023-04-25T00:06:00;6.10;99.90
25983;DHT22;13773;48.868;10.730;2023-04-25T00:08:28;6.00;99.90
25983;DHT22;13773;48.868;10.730;2023-04-25T00:10:54;5.90;99.90
25983;DHT22;13773;48.868;10.730;2023-04-25T00:13:20;5.80;99.90
25983;DHT22;13773;48.868;10.730;2023-04-25T00:15:45;8.10;99.90
25983;DHT22;13773;48.868;10.730;2023-04-25T00:18:11;5.70;99.90
25983;DHT22;13773;48.868;10.730;2023-04-25T00:20:37;5.50;99.90
25983;DHT22;13773;48.868;10.730;2023-04-25T00:23:03;5.50;99.90
25983;DHT22;13773;48.868;10.730;2023-04-25T00:25:29;5.40;99.90
25983;DHT22;13773;48.868;10.730;2023-04-25T00:27:55;5.30;99.90
25983;DHT22;13773;48.868;10.730;2023-04-25T00:30:21;5.30;99.90
25983;DHT22;13773;48.868;10.730;2023-04-25T00:32:47;5.20;99.90
25983;DHT22;13773;48.868;10.730;2023-04-25T00:35:14;5.30;99.90
25983;DHT22;13773;48.868;10.730;2023-04-25T00:37:40;5.30;99.90
25983;DHT22;13773;48.868;10.730;2023-04-25T00:40:06;5.30;99.90
25983;DHT22;13773;48.868;10.730;2023-04-25T00:42:33;5.30;99.90
25983;DHT22;13773;48.868;10.730;2023-04-25T00:45:01;5.40;99.90
25983;DHT22;13773;48.868;10.730;2023-04-25T00:47:28;5.40;99.90
25983;DHT22;13773;48.868;10.730;2023-04-25T00:49:54;5.40;99.90
25983;DHT22;13773;48.868;10.730;2023-04-25T00:52:19;5.50;99.90
25983;DHT22;13773;48.868;10.730;2023-04-25T00:54:45;5.70;99.90
25983;DHT22;13773;48.868;10.730;2023-04-25T00:57:11;5.80;99.90
25983;DHT22;13773;48.868;10.730;2023-04-25T00:59:37;5.90;99.90
25983;DHT22;13773;48.868;10.730;2023-04-25T01:02:04;6.00;99.90
25983;DHT22;13773;48.868;10.730;2023-04-25T01:04:30;6.10;99.90
25983;DHT22;13773;48.868;10.730;2023-04-25T01:06:56;6.10;99.90
25983;DHT22;13773;48.868;10.730;2023-04-25T01:09:23;6.10;99.90
25983;DHT22;13773;48.868;10.730;2023-04-25T01:11:49;6.20;99.90
25983;DHT22;13773;48.868;10.730;2023-04-25T01:14:15;6.20;99.90
25983;DHT22;13773;48.868;10.730;2023-04-25T01:16:42;6.20;99.90
25983;DHT22;13773;48.868;10.730;2023-04-25T01:19:10;6.30;99.90
25983;DHT22;13773;48.868;10.730;2023-04-25T01:21:38;6.30;99.90
25983;DHT22;13773;48.868;10.730;2023-04-25T01:24:06;6.40;99.90
25983;DHT22;13773;48.868;10.730;2023-04-25T01:26:32;6.40;99.90
25983;DHT22;13773;48.868;10.730;2023-04-25T01:28:59;6.30;99.90
25983;DHT22;13773;48.868;10.730;2023-04-25T01:31:26;6.40;99.90
25983;DHT22;13773;48.868;10.730;2023-04-25T01:33:53;6.40;99.90
25983;DHT22;13773;48.868;10.730;2023-04-25T01:36:19;6.40;99.90
25983;DHT22;13773;48.868;10.730;2023-04-25T01:38:45;6.30;99.90
25983;DHT22;13773;48.868;10.730;2023-04-25T01:41:13;6.30;99.90
25983;DHT22;13773;48.868;10.730;2023-04-25T01:43:39;6.30;99.90
25983;DHT22;13773;48.868;10.730;2023-04-25T01:46:06;6.40;99.90
25983;DHT22;13773;48.868;10.730;2023-04-25T01:48:31;6.40;99.90
25983;DHT22;13773;48.868;10.730;2023-04-25T01:50:57;6.40;99.90
25983;DHT22;13773;48.868;10.730;2023-04-25T01:53:24;6.40;99.90
25983;DHT22;13773;48.868;10.730;2023-04-25T01:55:49;6.40;99.90
25983;DHT22;13773;48.868;10.730;2023-04-25T01:58:15;6.50;99.90
25983;DHT22;13773;48.868;10.730;2023-04-25T02:00:41;6.50;99.90
25983;DHT22;13773;48.868;10.730;2023-04-25T02:03:07;6.40;99.90
25983;DHT22;13773;48.868;10.730;2023-04-25T02:05:37;6.40;99.90
25983;DHT22;13773;48.868;10.730;2023-04-25T02:08:05;6.30;99.90
25983;DHT22;13773;48.868;10.730;2023-04-25T02:10:31;6.30;99.90
25983;DHT22;13773;48.868;10.730;2023-04-25T02:12:57;6.30;99.90
25983;DHT22;13773;48.868;10.730;2023-04-25T02:15:23;6.30;99.90
25983;DHT22;13773;48.868;10.730;2023-04-25T02:17:49;6.30;99.90
25983;DHT22;13773;48.868;10.730;2023-04-25T02:20:15;6.30;99.90
25983;DHT22;13773;48.868;10.730;2023-04-25T02:22:45;6.30;99.90
25983;DHT22;13773;48.868;10.730;2023-04-25T02:25:11;6.40;99.90
25983;DHT22;13773;48.868;10.730;2023-04-25T02:27:37;6.40;99.90
25983;DHT22;13773;48.868;10.730;2023-04-25T02:30:03;6.40;99.90
25983;DHT22;13773;48.868;10.730;2023-04-25T02:32:30;6.40;99.90
25983;DHT22;13773;48.868;10.730;2023-04-25T02:34:56;6.40;99.90
25983;DHT22;13773;48.868;10.730;2023-04-25T02:37:24;6.40;99.90
25983;DHT22;13773;48.868;10.730;2023-04-25T02:39:50;6.40;99.90
25983;DHT22;13773;48.868;10.730;2023-04-25T02:42:15;6.40;99.90
25983;DHT22;13773;48.868;10.730;2023-04-25T02:44:41;6.30;99.90
25983;DHT22;13773;48.868;10.730;2023-04-25T02:47:07;6.30;99.90
25983;DHT22;13773;48.868;10.730;2023-04-25T02:49:33;6.30;99.90
25983;DHT22;13773;48.868;10.730;2023-04-25T02:51:58;6.30;99.90
25983;DHT22;13773;48.868;10.730;2023-04-25T02:54:24;6.30;99.90
25983;DHT22;13773;48.868;10.730;2023-04-25T02:56:50;6.30;99.90
25983;DHT22;13773;48.868;10.730;2023-04-25T02:59:15;6.20;99.90
25983;DHT22;13773;48.868;10.730;2023-04-25T03:01:41;6.20;99.90
25983;DHT22;13773;48.868;10.730;2023-04-25T03:04:07;6.20;99.90
25983;DHT22;13773;48.868;10.730;2023-04-25T03:06:32;6.20;99.90
25983;DHT22;13773;48.868;10.730;2023-04-25T03:08:58;6.20;99.90
25983;DHT22;13773;48.868;10.730;2023-04-25T03:11:25;6.20;99.90
25983;DHT22;13773;48.868;10.730;2023-04-25T03:13:51;6.20;99.90
25983;DHT22;13773;48.868;10.730;2023-04-25T03:16:16;6.20;99.90
25983;DHT22;13773;48.868;10.730;2023-04-25T03:18:42;6.30;99.90
25983;DHT22;13773;48.868;10.730;2023-04-25T03:21:08;6.30;99.90
25983;DHT22;13773;48.868;10.730;2023-04-25T03:23:34;6.30;99.90
25983;DHT22;13773;48.868;10.730;2023-04-25T03:25:59;6.30;99.90
25983;DHT22;13773;48.868;10.730;2023-04-25T03:28:25;6.30;99.90
25983;DHT22;13773;48.868;10.730;2023-04-25T03:30:51;6.40;99.90
25983;DHT22;13773;48.868;10.730;2023-04-25T03:33:16;6.30;99.90
25983;DHT22;13773;48.868;10.730;2023-04-25T03:35:42;6.40;99.90
25983;DHT22;13773;48.868;10.730;2023-04-25T03:38:08;6.40;99.90
25983;DHT22;13773;48.868;10.730;2023-04-25T03:40:34;6.40;99.90
25983;DHT22;13773;48.868;10.730;2023-04-25T03:42:59;6.90;99.90
25983;DHT22;13773;48.868;10.730;2023-04-25T03:45:25;6.40;99.90
25983;DHT22;13773;48.868;10.730;2023-04-25T03:47:51;6.40;99.90
25983;DHT22;13773;48.868;10.730;2023-04-25T03:50:17;6.40;99.90
25983;DHT22;13773;48.868;10.730;2023-04-25T03:52:43;6.40;99.90
25983;DHT22;13773;48.868;10.730;2023-04-25T03:55:09;6.40;99.90
25983;DHT22;13773;48.868;10.730;2023-04-25T03:57:35;6.50;99.90
25983;DHT22;13773;48.868;10.730;2023-04-25T04:00:01;6.50;99.90
25983;DHT22;13773;48.868;10.730;2023-04-25T04:02:27;6.40;99.90
25983;DHT22;13773;48.868;10.730;2023-04-25T04:04:52;6.40;99.90
25983;DHT22;13773;48.868;10.730;2023-04-25T04:07:18;6.40;99.90
25983;DHT22;13773;48.868;10.730;2023-04-25T04:09:44;6.40;99.90
25983;DHT22;13773;48.868;10.730;2023-04-25T04:12:10;6.40;99.90
25983;DHT22;13773;48.868;10.730;2023-04-25T04:14:35;6.40;99.90
25983;DHT22;13773;48.868;10.730;2023-04-25T04:17:01;6.40;99.90
25983;DHT22;13773;48.868;10.730;2023-04-25T04:19:27;6.40;99.90
25983;DHT22;13773;48.868;10.730;2023-04-25T04:21:53;6.40;99.90
25983;DHT22;13773;48.868;10.730;2023-04-25T04:24:18;6.40;99.90
25983;DHT22;13773;48.868;10.730;2023-04-25T04:26:44;6.40;99.90
25983;DHT22;13773;48.868;10.730;2023-04-25T04:29:10;6.40;99.90
25983;DHT22;13773;48.868;10.730;2023-04-25T04:31:36;6.50;99.90
25983;DHT22;13773;48.868;10.730;2023-04-25T04:34:03;6.40;99.90
25983;DHT22;13773;48.868;10.730;2023-04-25T04:36:29;6.40;99.90
25983;DHT22;13773;48.868;10.730;2023-04-25T04:38:55;6.40;99.90
25983;DHT22;13773;48.868;10.730;2023-04-25T04:41:22;6.40;99.90
25983;DHT22;13773;48.868;10.730;2023-04-25T04:43:47;6.50;99.90
25983;DHT22;13773;48.868;10.730;2023-04-25T04:46:13;6.50;99.90
25983;DHT22;13773;48.868;10.730;2023-04-25T04:48:39;6.50;99.90
25983;DHT22;13773;48.868;10.730;2023-04-25T04:51:05;6.50;99.90
25983;DHT22;13773;48.868;10.730;2023-04-25T04:53:32;6.50;99.90
25983;DHT22;13773;48.868;10.730;2023-04-25T04:55:58;6.60;99.90
25983;DHT22;13773;48.868;10.730;2023-04-25T04:58:23;6.60;99.90
25983;DHT22;13773;48.868;10.730;2023-04-25T05:00:49;6.60;99.90
25983;DHT22;13773;48.868;10.730;2023-04-25T05:03:16;6.60;99.90
25983;DHT22;13773;48.868;10.730;2023-04-25T05:05:41;6.60;99.90
25983;DHT22;13773;48.868;10.730;2023-04-25T05:08:07;6.60;99.90
25983;DHT22;13773;48.868;10.730;2023-04-25T05:10:33;6.70;99.90
25983;DHT22;13773;48.868;10.730;2023-04-25T05:12:59;6.70;99.90
25983;DHT22;13773;48.868;10.730;2023-04-25T05:15:24;6.80;99.90
25983;DHT22;13773;48.868;10.730;2023-04-25T05:17:50;6.90;99.90
25983;DHT22;13773;48.868;10.730;2023-04-25T05:20:16;6.90;99.90
25983;DHT22;13773;48.868;10.730;2023-04-25T05:22:43;7.00;99.90
25983;DHT22;13773;48.868;10.730;2023-04-25T05:25:09;7.00;99.90
25983;DHT22;13773;48.868;10.730;2023-04-25T05:27:35;7.30;99.90
25983;DHT22;13773;48.868;10.730;2023-04-25T05:30:01;7.40;99.90
25983;DHT22;13773;48.868;10.730;2023-04-25T05:32:27;7.40;99.90
25983;DHT22;13773;48.868;10.730;2023-04-25T05:34:52;7.30;99.90
25983;DHT22;13773;48.868;10.730;2023-04-25T05:37:18;7.40;99.90
25983;DHT22;13773;48.868;10.730;2023-04-25T05:39:44;7.30;99.90
25983;DHT22;13773;48.868;10.730;2023-04-25T05:42:09;7.30;99.90
25983;DHT22;13773;48.868;10.730;2023-04-25T05:44:35;7.10;99.90
25983;DHT22;13773;48.868;10.730;2023-04-25T05:47:01;7.20;99.90
25983;DHT22;13773;48.868;10.730;2023-04-25T05:49:27;7.20;99.90
25983;DHT22;13773;48.868;10.730;2023-04-25T05:51:52;7.20;99.90
25983;DHT22;13773;48.868;10.730;2023-04-25T05:54:18;7.20;99.90
25983;DHT22;13773;48.868;10.730;2023-04-25T05:56:43;7.20;99.90
25983;DHT22;13773;48.868;10.730;2023-04-25T05:59:09;7.10;99.90
25983;DHT22;13773;48.868;10.730;2023-04-25T06:01:35;7.10;99.90
25983;DHT22;13773;48.868;10.730;2023-04-25T06:04:01;7.20;99.90
25983;DHT22;13773;48.868;10.730;2023-04-25T06:06:27;7.20;99.90
25983;DHT22;13773;48.868;10.730;2023-04-25T06:08:53;7.20;99.90
25983;DHT22;13773;48.868;10.730;2023-04-25T06:11:18;7.10;99.90
25983;DHT22;13773;48.868;10.730;2023-04-25T06:13:45;7.20;99.90
25983;DHT22;13773;48.868;10.730;2023-04-25T06:16:11;7.40;99.90
25983;DHT22;13773;48.868;10.730;2023-04-25T06:18:36;7.60;99.90
25983;DHT22;13773;48.868;10.730;2023-04-25T06:21:02;7.70;99.90
25983;DHT22;13773;48.868;10.730;2023-04-25T06:23:28;7.70;99.90
25983;DHT22;13773;48.868;10.730;2023-04-25T06:25:53;7.80;99.90
25983;DHT22;13773;48.868;10.730;2023-04-25T06:28:21;7.90;99.90
25983;DHT22;13773;48.868;10.730;2023-04-25T06:30:48;7.90;99.90
25983;DHT22;13773;48.868;10.730;2023-04-25T06:33:14;7.80;99.90
25983;DHT22;13773;48.868;10.730;2023-04-25T06:35:40;7.80;99.90
25983;DHT22;13773;48.868;10.730;2023-04-25T06:38:05;7.80;99.90
25983;DHT22;13773;48.868;10.730;2023-04-25T06:40:31;7.80;99.90
25983;DHT22;13773;48.868;10.730;2023-04-25T06:42:57;7.80;99.90
25983;DHT22;13773;48.868;10.730;2023-04-25T06:45:23;7.80;99.90
25983;DHT22;13773;48.868;10.730;2023-04-25T06:47:49;7.80;99.90
25983;DHT22;13773;48.868;10.730;2023-04-25T06:50:15;7.80;99.90
25983;DHT22;13773;48.868;10.730;2023-04-25T06:52:41;7.70;99.90
25983;DHT22;13773;48.868;10.730;2023-04-25T06:55:07;7.80;99.90
25983;DHT22;13773;48.868;10.730;2023-04-25T06:57:33;7.80;99.90
25983;DHT22;13773;48.868;10.730;2023-04-25T06:59:59;7.70;99.90
25983;DHT22;13773;48.868;10.730;2023-04-25T07:02:26;7.70;99.90
25983;DHT22;13773;48.868;10.730;2023-04-25T07:04:52;7.70;99.90
25983;DHT22;13773;48.868;10.730;2023-04-25T07:07:18;7.70;99.90
25983;DHT22;13773;48.868;10.730;2023-04-25T07:09:44;7.80;99.90
25983;DHT22;13773;48.868;10.730;2023-04-25T07:12:10;7.80;99.90
25983;DHT22;13773;48.868;10.730;2023-04-25T07:14:36;7.80;99.90
25983;DHT22;13773;48.868;10.730;2023-04-25T07:17:02;7.80;99.90
25983;DHT22;13773;48.868;10.730;2023-04-25T07:19:27;7.80;99.90
25983;DHT22;13773;48.868;10.730;2023-04-25T07:21:55;7.80;99.90
25983;DHT22;13773;48.868;10.730;2023-04-25T07:24:20;7.90;99.90
25983;DHT22;13773;48.868;10.730;2023-04-25T07:26:46;7.80;99.90
25983;DHT22;13773;48.868;10.730;2023-04-25T07:29:12;7.80;99.90
25983;DHT22;13773;48.868;10.730;2023-04-25T07:31:37;7.90;99.90
25983;DHT22;13773;48.868;10.730;2023-04-25T07:34:03;8.00;99.90
25983;DHT22;13773;48.868;10.730;2023-04-25T07:36:29;8.10;99.90
25983;DHT22;13773;48.868;10.730;2023-04-25T07:38:56;8.10;99.90
25983;DHT22;13773;48.868;10.730;2023-04-25T07:41:21;8.10;99.90
25983;DHT22;13773;48.868;10.730;2023-04-25T07:43:47;8.10;99.90
25983;DHT22;13773;48.868;10.730;2023-04-25T07:46:13;8.30;99.90
25983;DHT22;13773;48.868;10.730;2023-04-25T07:48:39;8.30;99.90
25983;DHT22;13773;48.868;10.730;2023-04-25T07:51:05;8.30;99.90
25983;DHT22;13773;48.868;10.730;2023-04-25T07:53:31;8.20;99.90
25983;DHT22;13773;48.868;10.730;2023-04-25T07:55:57;8.10;99.90
25983;DHT22;13773;48.868;10.730;2023-04-25T07:58:23;8.00;99.90
25983;DHT22;13773;48.868;10.730;2023-04-25T08:00:49;7.70;99.90
25983;DHT22;13773;48.868;10.730;2023-04-25T08:03:15;7.50;99.90
25983;DHT22;13773;48.868;10.730;2023-04-25T08:05:41;7.40;99.90
25983;DHT22;13773;48.868;10.730;2023-04-25T08:08:06;7.20;99.90
25983;DHT22;13773;48.868;10.730;2023-04-25T08:10:33;7.10;99.90
25983;DHT22;13773;48.868;10.730;2023-04-25T08:12:59;7.10;99.90
25983;DHT22;13773;48.868;10.730;2023-04-25T08:15:25;7.10;99.90
25983;DHT22;13773;48.868;10.730;2023-04-25T08:17:51;4.10;99.90
25983;DHT22;13773;48.868;10.730;2023-04-25T08:20:17;6.90;99.90
25983;DHT22;13773;48.868;10.730;2023-04-25T08:22:43;6.90;99.90
25983;DHT22;13773;48.868;10.730;2023-04-25T08:25:09;6.90;99.90
25983;DHT22;13773;48.868;10.730;2023-04-25T08:27:34;7.00;99.90
25983;DHT22;13773;48.868;10.730;2023-04-25T08:30:01;7.20;99.90
25983;DHT22;13773;48.868;10.730;2023-04-25T08:32:28;7.30;99.90
25983;DHT22;13773;48.868;10.730;2023-04-25T08:34:54;7.40;99.90
25983;DHT22;13773;48.868;10.730;2023-04-25T08:37:21;7.30;99.90
25983;DHT22;13773;48.868;10.730;2023-04-25T08:39:46;7.20;99.90
25983;DHT22;13773;48.868;10.730;2023-04-25T08:42:15;7.00;99.90
25983;DHT22;13773;48.868;10.730;2023-04-25T08:44:41;6.80;99.90
25983;DHT22;13773;48.868;10.730;2023-04-25T08:47:07;6.60;99.90
25983;DHT22;13773;48.868;10.730;2023-04-25T08:49:33;6.70;99.90
25983;DHT22;13773;48.868;10.730;2023-04-25T08:52:03;6.80;99.90
25983;DHT22;13773;48.868;10.730;2023-04-25T08:54:31;7.00;99.90
25983;DHT22;13773;48.868;10.730;2023-04-25T08:57:03;7.20;99.90
25983;DHT22;13773;48.868;10.730;2023-04-25T08:59:30;7.40;99.90
25983;DHT22;13773;48.868;10.730;2023-04-25T09:01:57;7.50;99.90
25983;DHT22;13773;48.868;10.730;2023-04-25T09:04:22;7.40;99.90
25983;DHT22;13773;48.868;10.730;2023-04-25T09:06:48;7.60;99.90
25983;DHT22;13773;48.868;10.730;2023-04-25T09:09:14;7.70;99.90
25983;DHT22;13773;48.868;10.730;2023-04-25T09:11:40;7.60;99.90
25983;DHT22;13773;48.868;10.730;2023-04-25T09:14:21;7.70;99.90
25983;DHT22;13773;48.868;10.730;2023-04-25T09:17:07;7.80;99.90
25983;DHT22;13773;48.868;10.730;2023-04-25T09:19:35;7.70;99.90
25983;DHT22;13773;48.868;10.730;2023-04-25T09:22:03;7.70;99.90
25983;DHT22;13773;48.868;10.730;2023-04-25T09:24:39;7.80;99.90
25983;DHT22;13773;48.868;10.730;2023-04-25T09:27:13;7.70;99.90
25983;DHT22;13773;48.868;10.730;2023-04-25T09:29:43;7.80;99.90
25983;DHT22;13773;48.868;10.730;2023-04-25T09:32:20;7.70;99.90
25983;DHT22;13773;48.868;10.730;2023-04-25T09:34:50;7.40;99.90
25983;DHT22;13773;48.868;10.730;2023-04-25T09:37:23;7.40;99.90
25983;DHT22;13773;48.868;10.730;2023-04-25T09:39:51;7.30;99.90
25983;DHT22;13773;48.868;10.730;2023-04-25T09:42:17;7.30;99.90
25983;DHT22;13773;48.868;10.730;2023-04-25T09:44:44;7.30;99.90
25983;DHT22;13773;48.868;10.730;2023-04-25T09:47:11;7.60;99.90
25983;DHT22;13773;48.868;10.730;2023-04-25T09:49:40;7.70;99.90
25983;DHT22;13773;48.868;10.730;2023-04-25T09:52:07;8.30;99.90
25983;DHT22;13773;48.868;10.730;2023-04-25T09:54:32;8.60;99.90
25983;DHT22;13773;48.868;10.730;2023-04-25T09:57:09;8.80;99.90
25983;DHT22;13773;48.868;10.730;2023-04-25T09:59:39;8.90;99.90
25983;DHT22;13773;48.868;10.730;2023-04-25T10:02:07;9.10;99.90
25983;DHT22;13773;48.868;10.730;2023-04-25T10:04:34;9.40;99.90
25983;DHT22;13773;48.868;10.730;2023-04-25T10:07:03;9.40;99.90
25983;DHT22;13773;48.868;10.730;2023-04-25T10:09:32;10.10;99.90
25983;DHT22;13773;48.868;10.730;2023-04-25T10:11:59;9.50;99.90
25983;DHT22;13773;48.868;10.730;2023-04-25T10:14:26;9.50;99.90
25983;DHT22;13773;48.868;10.730;2023-04-25T10:16:53;9.70;99.90
25983;DHT22;13773;48.868;10.730;2023-04-25T10:19:20;9.90;99.90
25983;DHT22;13773;48.868;10.730;2023-04-25T10:21:52;10.00;99.90
25983;DHT22;13773;48.868;10.730;2023-04-25T10:24:20;10.20;99.90
25983;DHT22;13773;48.868;10.730;2023-04-25T10:26:47;10.30;99.90
25983;DHT22;13773;48.868;10.730;2023-04-25T10:29:22;10.20;99.90
25983;DHT22;13773;48.868;10.730;2023-04-25T10:31:48;10.20;99.90
25983;DHT22;13773;48.868;10.730;2023-04-25T10:34:16;10.10;99.90
25983;DHT22;13773;48.868;10.730;2023-04-25T10:36:42;10.70;99.90
25983;DHT22;13773;48.868;10.730;2023-04-25T10:39:08;10.80;99.90
25983;DHT22;13773;48.868;10.730;2023-04-25T10:41:47;10.80;99.90
25983;DHT22;13773;48.868;10.730;2023-04-25T10:44:15;11.20;99.90
25983;DHT22;13773;48.868;10.730;2023-04-25T10:46:41;11.50;99.90
25983;DHT22;13773;48.868;10.730;2023-04-25T10:49:08;11.10;99.90
25983;DHT22;13773;48.868;10.730;2023-04-25T10:51:35;10.60;99.90
25983;DHT22;13773;48.868;10.730;2023-04-25T10:54:06;10.30;99.90
25983;DHT22;13773;48.868;10.730;2023-04-25T10:56:33;9.90;99.90
25983;DHT22;13773;48.868;10.730;2023-04-25T10:59:26;10.20;99.90
25983;DHT22;13773;48.868;10.730;2023-04-25T11:01:53;10.50;99.90
25983;DHT22;13773;48.868;10.730;2023-04-25T11:04:29;10.50;99.90
25983;DHT22;13773;48.868;10.730;2023-04-25T11:07:18;11.20;99.90
25983;DHT22;13773;48.868;10.730;2023-04-25T11:09:48;11.00;99.90
25983;DHT22;13773;48.868;10.730;2023-04-25T11:12:14;11.20;99.90
25983;DHT22;13773;48.868;10.730;2023-04-25T11:14:40;11.50;99.90
25983;DHT22;13773;48.868;10.730;2023-04-25T11:17:06;11.20;99.90
25983;DHT22;13773;48.868;10.730;2023-04-25T11:19:32;11.30;99.90
25983;DHT22;13773;48.868;10.730;2023-04-25T11:21:59;10.90;99.90
25983;DHT22;13773;48.868;10.730;2023-04-25T11:24:35;11.10;99.90
25983;DHT22;13773;48.868;10.730;2023-04-25T11:27:02;11.70;99.90
25983;DHT22;13773;48.868;10.730;2023-04-25T11:29:32;11.10;99.90
25983;DHT22;13773;48.868;10.730;2023-04-25T11:31:59;10.90;99.90
25983;DHT22;13773;48.868;10.730;2023-04-25T11:34:27;10.50;99.90
25983;DHT22;13773;48.868;10.730;2023-04-25T11:36:53;10.40;99.90
25983;DHT22;13773;48.868;10.730;2023-04-25T11:39:19;10.00;99.90
25983;DHT22;13773;48.868;10.730;2023-04-25T11:41:46;10.00;99.90
25983;DHT22;13773;48.868;10.730;2023-04-25T11:44:15;9.70;99.90
25983;DHT22;13773;48.868;10.730;2023-04-25T11:46:42;9.60;99.90
25983;DHT22;13773;48.868;10.730;2023-04-25T11:49:08;9.50;99.90
25983;DHT22;13773;48.868;10.730;2023-04-25T11:51:44;9.50;99.90
25983;DHT22;13773;48.868;10.730;2023-04-25T11:54:11;9.80;99.90
25983;DHT22;13773;48.868;10.730;2023-04-25T11:56:40;10.10;99.90
25983;DHT22;13773;48.868;10.730;2023-04-25T11:59:06;10.60;99.90
25983;DHT22;13773;48.868;10.730;2023-04-25T12:01:34;10.90;99.90
25983;DHT22;13773;48.868;10.730;2023-04-25T12:04:16;11.40;99.90
25983;DHT22;13773;48.868;10.730;2023-04-25T12:06:44;11.30;99.90
25983;DHT22;13773;48.868;10.730;2023-04-25T12:09:14;11.20;99.90
25983;DHT22;13773;48.868;10.730;2023-04-25T12:11:46;11.50;99.90
25983;DHT22;13773;48.868;10.730;2023-04-25T12:14:19;11.30;99.90
25983;DHT22;13773;48.868;10.730;2023-04-25T12:16:46;11.50;99.90
25983;DHT22;13773;48.868;10.730;2023-04-25T12:19:16;11.60;99.90
25983;DHT22;13773;48.868;10.730;2023-04-25T12:21:43;12.00;99.90
25983;DHT22;13773;48.868;10.730;2023-04-25T12:29:22;11.80;99.90
25983;DHT22;13773;48.868;10.730;2023-04-25T12:31:49;11.70;99.90
25983;DHT22;13773;48.868;10.730;2023-04-25T12:34:15;11.30;99.90
25983;DHT22;13773;48.868;10.730;2023-04-25T12:36:41;11.20;99.90
25983;DHT22;13773;48.868;10.730;2023-04-25T12:39:07;11.00;99.90
25983;DHT22;13773;48.868;10.730;2023-04-25T12:41:33;10.70;99.90
25983;DHT22;13773;48.868;10.730;2023-04-25T12:43:59;10.60;99.90
25983;DHT22;13773;48.868;10.730;2023-04-25T12:46:25;10.60;99.90
25983;DHT22;13773;48.868;10.730;2023-04-25T12:48:50;10.80;99.90
25983;DHT22;13773;48.868;10.730;2023-04-25T12:51:16;10.80;99.90
25983;DHT22;13773;48.868;10.730;2023-04-25T12:53:42;10.70;99.90
25983;DHT22;13773;48.868;10.730;2023-04-25T12:56:10;10.80;99.90
25983;DHT22;13773;48.868;10.730;2023-04-25T12:58:36;10.70;99.90
25983;DHT22;13773;48.868;10.730;2023-04-25T13:01:02;10.70;99.90
25983;DHT22;13773;48.868;10.730;2023-04-25T13:03:27;10.40;99.90
25983;DHT22;13773;48.868;10.730;2023-04-25T13:05:53;10.50;99.90
25983;DHT22;13773;48.868;10.730;2023-04-25T13:08:19;10.80;99.90
25983;DHT22;13773;48.868;10.730;2023-04-25T13:10:45;10.90;99.90
25983;DHT22;13773;48.868;10.730;2023-04-25T13:13:11;10.90;99.90
25983;DHT22;13773;48.868;10.730;2023-04-25T13:15:36;10.80;99.90
25983;DHT22;13773;48.868;10.730;2023-04-25T13:18:06;10.60;99.90
25983;DHT22;13773;48.868;10.730;2023-04-25T13:20:32;10.60;99.90
25983;DHT22;13773;48.868;10.730;2023-04-25T13:22:58;10.80;99.90
25983;DHT22;13773;48.868;10.730;2023-04-25T13:25:23;10.80;99.90
25983;DHT22;13773;48.868;10.730;2023-04-25T13:27:49;10.80;99.90
25983;DHT22;13773;48.868;10.730;2023-04-25T13:30:15;10.80;99.90
25983;DHT22;13773;48.868;10.730;2023-04-25T13:32:40;10.60;99.90
25983;DHT22;13773;48.868;10.730;2023-04-25T13:35:08;10.80;99.90
25983;DHT22;13773;48.868;10.730;2023-04-25T13:37:35;10.90;99.90
25983;DHT22;13773;48.868;10.730;2023-04-25T13:40:02;11.00;99.90
25983;DHT22;13773;48.868;10.730;2023-04-25T13:42:29;10.80;99.90
25983;DHT22;13773;48.868;10.730;2023-04-25T13:44:55;10.40;99.90
25983;DHT22;13773;48.868;10.730;2023-04-25T13:47:22;10.10;99.90
25983;DHT22;13773;48.868;10.730;2023-04-25T13:49:48;9.70;99.90
25983;DHT22;13773;48.868;10.730;2023-04-25T13:52:14;9.60;99.90
25983;DHT22;13773;48.868;10.730;2023-04-25T13:54:40;9.60;99.90
25983;DHT22;13773;48.868;10.730;2023-04-25T13:57:06;9.70;99.90
25983;DHT22;13773;48.868;10.730;2023-04-25T13:59:32;9.80;99.90
25983;DHT22;13773;48.868;10.730;2023-04-25T14:01:58;9.90;99.90
25983;DHT22;13773;48.868;10.730;2023-04-25T14:04:24;9.90;99.90
25983;DHT22;13773;48.868;10.730;2023-04-25T14:06:50;9.80;99.90
25983;DHT22;13773;48.868;10.730;2023-04-25T14:09:17;9.80;99.90
25983;DHT22;13773;48.868;10.730;2023-04-25T14:11:43;9.80;99.90
25983;DHT22;13773;48.868;10.730;2023-04-25T14:14:08;9.80;99.90
25983;DHT22;13773;48.868;10.730;2023-04-25T14:16:34;9.90;99.90
25983;DHT22;13773;48.868;10.730;2023-04-25T14:19:00;8.70;99.90
25983;DHT22;13773;48.868;10.730;2023-04-25T14:21:27;10.40;99.90
25983;DHT22;13773;48.868;10.730;2023-04-25T14:23:53;10.60;99.90
25983;DHT22;13773;48.868;10.730;2023-04-25T14:26:19;10.90;99.90
25983;DHT22;13773;48.868;10.730;2023-04-25T14:28:45;11.10;99.90
25983;DHT22;13773;48.868;10.730;2023-04-25T14:31:11;11.50;99.90
25983;DHT22;13773;48.868;10.730;2023-04-25T14:33:36;11.70;99.90
25983;DHT22;13773;48.868;10.730;2023-04-25T14:36:05;11.30;99.90
25983;DHT22;13773;48.868;10.730;2023-04-25T14:38:31;11.30;99.90
25983;DHT22;13773;48.868;10.730;2023-04-25T14:40:56;11.20;99.90
25983;DHT22;13773;48.868;10.730;2023-04-25T14:43:22;10.80;99.90
25983;DHT22;13773;48.868;10.730;2023-04-25T14:45:48;10.70;99.90
25983;DHT22;13773;48.868;10.730;2023-04-25T14:48:13;10.60;99.90
25983;DHT22;13773;48.868;10.730;2023-04-25T14:50:40;10.50;99.90
25983;DHT22;13773;48.868;10.730;2023-04-25T14:53:06;10.50;99.90
25983;DHT22;13773;48.868;10.730;2023-04-25T14:55:32;10.40;99.90
25983;DHT22;13773;48.868;10.730;2023-04-25T14:57:57;10.00;99.90
25983;DHT22;13773;48.868;10.730;2023-04-25T15:00:23;9.70;99.90
25983;DHT22;13773;48.868;10.730;2023-04-25T15:02:50;9.60;99.90
25983;DHT22;13773;48.868;10.730;2023-04-25T15:05:17;9.70;99.90
25983;DHT22;13773;48.868;10.730;2023-04-25T15:07:43;10.00;99.90
25983;DHT22;13773;48.868;10.730;2023-04-25T15:10:10;10.10;99.90
25983;DHT22;13773;48.868;10.730;2023-04-25T15:12:41;10.10;99.90
25983;DHT22;13773;48.868;10.730;2023-04-25T15:15:08;9.90;99.90
25983;DHT22;13773;48.868;10.730;2023-04-25T15:17:43;10.00;99.90
25983;DHT22;13773;48.868;10.730;2023-04-25T15:20:11;9.70;99.90
25983;DHT22;13773;48.868;10.730;2023-04-25T15:22:42;9.60;99.90
25983;DHT22;13773;48.868;10.730;2023-04-25T15:25:09;9.60;99.90
25983;DHT22;13773;48.868;10.730;2023-04-25T15:27:36;9.60;99.90
25983;DHT22;13773;48.868;10.730;2023-04-25T15:30:10;9.20;99.90